createdAt,value
2023-04-05T00:03:35.508Z,14.38
2023-04-05T00:08:28.588Z,11.27
2023-04-05T00:13:21.905Z,11.18
2023-04-05T00:18:21.906Z,13.63
2023-04-05T00:23:14.652Z,13.00
2023-04-05T00:28:06.662Z,12.38
2023-04-05T00:32:58.305Z,12.32
2023-04-05T00:37:50.010Z,11.55
2023-04-05T00:42:41.747Z,9.30
2023-04-05T00:47:33.522Z,15.90
2023-04-05T00:52:25.273Z,10.68
2023-04-05T00:57:18.348Z,13.88
2023-04-05T01:02:52.074Z,11.68
2023-04-05T01:08:02.318Z,9.18
2023-04-05T01:12:54.734Z,10.35
2023-04-05T01:17:47.255Z,16.70
2023-04-05T01:23:03.402Z,11.98
2023-04-05T01:27:57.866Z,11.45
2023-04-05T01:33:34.557Z,9.77
2023-04-05T01:38:28.302Z,9.30
2023-04-05T01:43:20.003Z,12.55
2023-04-05T01:48:12.188Z,10.85
2023-04-05T01:53:03.957Z,12.60
2023-04-05T01:57:56.906Z,12.98
2023-04-05T02:02:48.956Z,9.93
2023-04-05T02:07:40.812Z,8.60
2023-04-05T02:12:32.692Z,10.70
2023-04-05T02:17:25.241Z,13.05
2023-04-05T02:22:16.929Z,10.05
2023-04-05T02:27:08.576Z,11.30
2023-04-05T02:32:00.492Z,13.00
2023-04-05T02:36:52.389Z,10.05
2023-04-05T02:41:44.084Z,14.15
2023-04-05T02:46:35.663Z,12.75
2023-04-05T02:51:27.282Z,9.82
2023-04-05T02:56:19.193Z,16.52
2023-04-05T03:01:10.835Z,13.65
2023-04-05T03:06:11.074Z,10.18
2023-04-05T03:11:03.012Z,10.63
2023-04-05T03:15:55.365Z,17.50
2023-04-05T03:20:50.284Z,13.48
2023-04-05T03:25:43.075Z,12.73
2023-04-05T03:30:35.971Z,11.00
2023-04-05T03:35:31.092Z,11.90
2023-04-05T03:40:23.958Z,14.40
2023-04-05T03:45:19.804Z,12.02
2023-04-05T03:55:07.019Z,16.65
2023-04-05T03:59:58.656Z,12.45
2023-04-05T04:04:51.486Z,14.48
2023-04-05T04:09:43.105Z,13.18
2023-04-05T04:14:35.554Z,15.13
2023-04-05T04:19:27.168Z,13.85
2023-04-05T04:24:19.565Z,15.43
2023-04-05T04:29:12.964Z,16.15
2023-04-05T04:34:05.698Z,14.32
2023-04-05T04:38:57.301Z,20.80
2023-04-05T04:43:48.887Z,12.70
2023-04-05T04:48:42.420Z,13.77
2023-04-05T04:53:34.490Z,12.43
2023-04-05T04:58:26.226Z,13.20
2023-04-05T05:03:17.850Z,13.75
2023-04-05T05:08:09.609Z,13.55
2023-04-05T05:13:01.262Z,13.88
2023-04-05T05:17:55.331Z,13.52
2023-04-05T05:22:47.188Z,18.40
2023-04-05T05:27:38.960Z,14.15
2023-04-05T05:32:30.746Z,14.15
2023-04-05T05:37:30.267Z,13.95
2023-04-05T05:42:21.903Z,13.35
2023-04-05T05:47:13.529Z,20.35
2023-04-05T05:52:05.613Z,16.58
2023-04-05T05:56:57.362Z,19.85
2023-04-05T06:01:51.286Z,18.75
2023-04-05T06:06:44.031Z,14.95
2023-04-05T06:11:38.960Z,14.55
2023-04-05T06:16:35.598Z,13.63
2023-04-05T06:21:27.786Z,14.10
2023-04-05T06:26:21.720Z,19.10
2023-04-05T06:31:14.308Z,16.50
2023-04-05T06:36:06.203Z,15.38
2023-04-05T06:40:57.882Z,18.20
2023-04-05T06:45:49.521Z,14.95
2023-04-05T06:50:41.885Z,15.13
2023-04-05T06:55:33.851Z,19.48
2023-04-05T07:00:25.550Z,14.32
2023-04-05T07:05:17.415Z,18.13
2023-04-05T07:10:09.614Z,18.90
2023-04-05T07:15:01.362Z,14.13
2023-04-05T07:19:52.943Z,22.02
2023-04-05T07:24:48.657Z,17.92
2023-04-05T07:29:45.378Z,18.63
2023-04-05T07:34:38.386Z,14.77
2023-04-05T07:39:30.152Z,16.70
2023-04-05T07:44:22.234Z,15.00
2023-04-05T07:49:14.171Z,16.60
2023-04-05T07:54:07.492Z,14.68
2023-04-05T07:58:59.813Z,17.13
2023-04-05T08:03:51.742Z,18.25
2023-04-05T08:08:44.615Z,16.00
2023-04-05T08:13:38.657Z,21.60
2023-04-05T08:18:30.767Z,19.23
2023-04-05T08:23:22.903Z,20.00
2023-04-05T08:28:15.055Z,17.95
2023-04-05T08:33:07.395Z,19.15
2023-04-05T08:37:59.137Z,15.70
2023-04-05T08:43:02.626Z,13.38
2023-04-05T08:47:54.412Z,16.63
2023-04-05T08:52:49.922Z,16.00
2023-04-05T08:57:49.893Z,16.55
2023-04-05T09:02:45.512Z,17.45
2023-04-05T09:07:39.080Z,17.23
2023-04-05T09:12:30.969Z,18.35
2023-04-05T09:17:23.090Z,13.35
2023-04-05T09:22:18.517Z,14.80
2023-04-05T09:27:18.632Z,17.38
2023-04-05T09:32:12.092Z,17.02
2023-04-05T09:37:14.395Z,18.02
2023-04-05T09:42:07.077Z,16.23
2023-04-05T09:47:15.392Z,17.00
2023-04-05T09:52:21.153Z,18.33
2023-04-05T09:57:13.046Z,15.13
2023-04-05T10:02:04.845Z,15.00
2023-04-05T10:06:56.843Z,16.85
2023-04-05T10:11:48.658Z,14.68
2023-04-05T10:17:05.217Z,15.55
2023-04-05T10:22:01.021Z,19.02
2023-04-05T10:27:05.427Z,12.82
2023-04-05T10:32:08.105Z,12.70
2023-04-05T10:37:01.894Z,13.73
2023-04-05T10:42:01.130Z,12.32
2023-04-05T10:46:55.296Z,11.90
2023-04-05T10:51:48.172Z,17.77
2023-04-05T10:56:40.518Z,16.75
2023-04-05T11:01:33.056Z,14.95
2023-04-05T11:06:32.444Z,23.10
2023-04-05T11:11:26.557Z,18.90
2023-04-05T11:16:18.326Z,15.55
2023-04-05T11:21:09.973Z,14.77
2023-04-05T11:26:06.208Z,12.20
2023-04-05T11:31:02.134Z,10.73
2023-04-05T11:36:00.974Z,9.88
2023-04-05T11:41:06.201Z,11.35
2023-04-05T11:45:57.831Z,12.55
2023-04-05T11:50:51.364Z,14.98
2023-04-05T11:55:47.618Z,13.27
2023-04-05T12:00:41.352Z,13.82
2023-04-05T12:06:09.133Z,13.25
2023-04-05T12:11:03.702Z,15.13
2023-04-05T12:16:01.844Z,16.73
2023-04-05T12:20:54.778Z,18.25
2023-04-05T12:25:50.841Z,16.08
2023-04-05T12:30:57.731Z,17.23
2023-04-05T12:35:51.927Z,16.65
2023-04-05T12:40:44.149Z,19.15
2023-04-05T12:45:43.867Z,15.57
2023-04-05T12:50:36.266Z,17.50
2023-04-05T12:55:29.704Z,15.35
2023-04-05T13:00:26.347Z,14.45
2023-04-05T13:05:18.005Z,15.85
2023-04-05T13:10:10.275Z,18.88
2023-04-05T13:15:01.915Z,14.25
2023-04-05T13:19:53.523Z,16.83
2023-04-05T13:24:45.160Z,13.60
2023-04-05T13:29:36.701Z,13.32
2023-04-05T13:34:28.299Z,12.93
2023-04-05T13:39:20.173Z,15.13
2023-04-05T13:44:11.952Z,12.40
2023-04-05T13:49:03.549Z,15.90
2023-04-05T13:53:55.174Z,13.32
2023-04-05T13:58:46.818Z,18.17
2023-04-05T14:03:38.534Z,15.40
2023-04-05T14:08:30.457Z,13.20
2023-04-05T14:13:22.898Z,14.15
2023-04-05T14:18:17.772Z,15.45
2023-04-05T14:23:09.504Z,15.43
2023-04-05T14:28:01.217Z,14.50
2023-04-05T14:32:52.948Z,13.75
2023-04-05T14:37:44.717Z,16.25
2023-04-05T14:42:47.559Z,13.65
2023-04-05T14:47:40.762Z,13.52
2023-04-05T14:52:32.383Z,14.57
2023-04-05T14:57:24.039Z,15.88
2023-04-05T15:02:15.843Z,13.35
2023-04-05T15:07:07.588Z,13.15
2023-04-05T15:11:59.358Z,12.70
2023-04-05T15:16:51.499Z,12.80
2023-04-05T15:21:44.037Z,13.80
2023-04-05T15:26:35.980Z,11.85
2023-04-05T15:31:27.665Z,13.20
2023-04-05T15:36:19.346Z,13.27
2023-04-05T15:41:11.193Z,12.00
2023-04-05T15:46:05.114Z,11.00
2023-04-05T15:50:56.819Z,10.32
2023-04-05T15:55:48.503Z,11.32
2023-04-05T16:00:41.563Z,10.73
2023-04-05T16:05:33.207Z,9.25
2023-04-05T16:10:25.436Z,10.70
2023-04-05T16:15:17.101Z,12.18
2023-04-05T16:20:09.296Z,9.43
2023-04-05T16:25:00.967Z,11.02
2023-04-05T16:29:52.615Z,10.23
2023-04-05T16:34:44.394Z,11.38
2023-04-05T16:39:36.279Z,9.75
2023-04-05T16:44:28.961Z,9.15
2023-04-05T16:49:21.604Z,9.02
2023-04-05T16:54:13.375Z,8.43
2023-04-05T16:59:07.304Z,8.73
2023-04-05T17:04:00.141Z,9.35
2023-04-05T17:08:52.215Z,10.27
2023-04-05T17:13:45.727Z,10.07
2023-04-05T17:18:37.388Z,10.05
2023-04-05T17:23:29.049Z,11.38
2023-04-05T17:28:20.828Z,11.43
2023-04-05T17:33:12.817Z,10.57
2023-04-05T17:38:04.540Z,9.90
2023-04-05T17:42:56.370Z,14.68
2023-04-05T17:47:48.266Z,12.07
2023-04-05T17:52:39.969Z,12.88
2023-04-05T17:57:31.609Z,12.77
2023-04-05T18:02:23.476Z,11.23
2023-04-05T18:07:15.101Z,12.80
2023-04-05T18:12:06.839Z,12.32
2023-04-05T18:16:59.391Z,12.65
2023-04-05T18:21:51.353Z,11.93
2023-04-05T18:26:43.011Z,14.93
2023-04-05T18:31:34.697Z,10.85
2023-04-05T18:36:26.857Z,14.18
2023-04-05T18:41:18.501Z,14.75
2023-04-05T18:46:18.194Z,11.98
2023-04-05T18:51:10.019Z,7.88
2023-04-05T18:56:01.901Z,8.45
2023-04-05T19:00:53.730Z,6.63
2023-04-05T19:05:50.790Z,7.05
2023-04-05T19:10:42.416Z,5.18
2023-04-05T19:15:34.178Z,5.97
2023-04-05T19:20:26.152Z,6.00
2023-04-05T19:25:17.882Z,5.07
2023-04-05T19:30:10.068Z,5.45
2023-04-05T19:35:02.123Z,7.13
2023-04-05T19:39:54.520Z,7.68
2023-04-05T19:44:52.303Z,8.82
2023-04-05T19:49:43.968Z,10.80
2023-04-05T19:54:36.922Z,8.63
2023-04-05T19:59:31.138Z,8.40
2023-04-05T20:04:24.561Z,9.40
2023-04-05T20:09:18.377Z,9.93
2023-04-05T20:14:11.133Z,12.77
2023-04-05T20:19:08.469Z,11.52
2023-04-05T20:24:02.005Z,11.55
2023-04-05T20:28:54.941Z,11.57
2023-04-05T20:34:21.834Z,12.55
2023-04-05T20:39:13.566Z,13.80
2023-04-05T20:44:05.727Z,11.48
2023-04-05T20:48:58.192Z,11.07
2023-04-05T20:53:50.040Z,9.20
2023-04-05T20:58:41.857Z,10.10
2023-04-05T21:03:36.260Z,11.52
2023-04-05T21:08:30.068Z,9.20
2023-04-05T21:13:22.069Z,11.07
2023-04-05T21:18:13.879Z,10.38
2023-04-05T21:23:05.721Z,9.43
2023-04-05T21:27:58.024Z,7.65
2023-04-05T21:32:51.231Z,12.50
2023-04-05T21:37:43.542Z,9.88
2023-04-05T21:42:35.274Z,9.00
2023-04-05T21:47:27.010Z,11.68
2023-04-05T21:52:19.240Z,8.27
2023-04-05T21:57:11.021Z,9.93
2023-04-05T22:02:03.409Z,10.25
2023-04-05T22:06:55.927Z,10.68
2023-04-05T22:11:49.881Z,9.73
2023-04-05T22:16:42.544Z,10.70
2023-04-05T22:21:34.317Z,8.50
2023-04-05T22:26:26.180Z,9.18
2023-04-05T22:31:17.888Z,9.10
2023-04-05T22:36:10.006Z,9.63
2023-04-05T22:41:01.841Z,11.02
2023-04-05T22:45:53.893Z,8.63
2023-04-05T22:50:45.704Z,9.05
2023-04-05T22:55:39.938Z,12.30
2023-04-05T23:00:31.682Z,10.05
2023-04-05T23:05:24.040Z,11.93
2023-04-05T23:10:15.708Z,9.55
2023-04-05T23:15:07.697Z,11.10
2023-04-05T23:19:59.449Z,11.45
2023-04-05T23:24:51.140Z,10.40
2023-04-05T23:29:42.817Z,11.00
2023-04-05T23:34:34.513Z,10.10
2023-04-05T23:39:26.196Z,8.93
2023-04-05T23:44:17.836Z,9.30
2023-04-05T23:49:09.717Z,9.10
2023-04-05T23:54:01.831Z,10.77
2023-04-05T23:58:53.532Z,8.13
